Time;durP1;ratioP1;P1;durP2;ratioP2;P2;SDS_P1;SDS_P2;PMS_P1;PMS_P2;Temp;Humidity;BMP_temperature;BMP_pressure;BME280_temperature;BME280_humidity;BME280_pressure;Samples;Min_cycle;Max_cycle;Signal;HPM_P1;HPM_P2
2022/05/23 00:01:52;;;;;;;6.67;4.12;;;;;;;8.66;78.59;97802.25;1742696;81;21272;-85
2022/05/23 00:04:18;;;;;;;5.95;4.12;;;;;;;8.62;78.62;97808.72;1738067;82;21584;-85
2022/05/23 00:06:44;;;;;;;9.08;3.83;;;;;;;8.56;78.07;97801.73;1733290;81;20870;-81
2022/05/23 00:09:10;;;;;;;8.55;4.78;;;;;;;8.44;78.55;97803.34;1743302;82;20985;-81
2022/05/23 00:11:35;;;;;;;7.47;3.98;;;;;;;8.36;78.49;97805.23;1724865;82;21061;-85
2022/05/23 00:14:01;;;;;;;6.37;3.52;;;;;;;8.28;78.55;97796.28;1723261;80;21095;-81
2022/05/23 00:16:32;;;;;;;8.15;4.28;;;;;;;8.20;80.27;97804.41;1742971;81;20917;-81
2022/05/23 00:18:58;;;;;;;8.28;3.33;;;;;;;8.13;82.41;97807.10;1743071;82;21515;-85
2022/05/23 00:21:24;;;;;;;5.67;4.10;;;;;;;8.05;80.14;97811.14;1743166;81;20941;-85
2022/05/23 00:23:50;;;;;;;6.08;3.58;;;;;;;7.91;83.98;97816.77;1734450;82;21387;-84
2022/05/23 00:26:19;;;;;;;4.75;3.40;;;;;;;7.89;81.79;97812.19;1727439;82;22008;-82
2022/05/23 00:28:45;;;;;;;7.45;4.00;;;;;;;7.83;82.89;97811.90;1718716;80;21009;-81
2022/05/23 00:31:11;;;;;;;5.97;3.70;;;;;;;7.85;81.38;97815.13;1746514;82;21025;-81
2022/05/23 00:36:28;;;;;;;6.92;4.25;;;;;;;7.89;84.18;97822.44;1743098;81;21436;-81
2022/05/23 00:38:54;;;;;;;5.42;3.80;;;;;;;7.95;80.89;97823.78;1736694;80;21311;-81
2022/05/23 00:44:30;;;;;;;6.90;3.92;;;;;;;7.93;83.22;97826.21;1717259;80;21014;-81
2022/05/23 00:47:03;;;;;;;9.75;4.10;;;;;;;7.96;83.11;97825.43;1713802;82;21005;-85
2022/05/23 00:49:33;;;;;;;5.33;3.85;;;;;;;7.97;85.68;97828.39;1729932;82;22152;-81
2022/05/23 00:52:03;;;;;;;9.88;4.28;;;;;;;7.96;85.01;97827.59;1743071;81;21146;-81
2022/05/23 00:54:39;;;;;;;8.95;4.60;;;;;;;7.98;85.49;97834.06;1721714;80;21036;-84
2022/05/23 00:57:06;;;;;;;7.35;4.30;;;;;;;8.01;84.35;97833.52;1704794;82;21022;-81
2022/05/23 00:59:32;;;;;;;7.00;3.98;;;;;;;8.01;83.01;97830.81;1697359;82;21080;-81
2022/05/23 01:01:59;;;;;;;7.45;4.97;;;;;;;8.01;83.18;97834.86;1713135;83;21996;-81
2022/05/23 01:04:25;;;;;;;8.20;4.72;;;;;;;8.00;82.57;97835.41;1720380;80;21038;-85
2022/05/23 01:06:51;;;;;;;5.83;3.92;;;;;;;8.01;83.24;97832.97;1734829;82;20905;-85
2022/05/23 01:09:20;;;;;;;6.17;4.50;;;;;;;8.03;83.63;97835.40;1741030;80;20910;-81
2022/05/23 01:11:45;;;;;;;7.53;5.12;;;;;;;8.03;84.68;97836.23;1742875;81;21032;-85
2022/05/23 01:14:11;;;;;;;5.97;4.08;;;;;;;8.02;83.88;97831.89;1743192;82;21409;-85
2022/05/23 01:16:39;;;;;;;6.90;4.22;;;;;;;8.03;84.37;97832.19;1742524;81;21205;-85
2022/05/23 01:19:04;;;;;;;7.62;4.30;;;;;;;8.06;83.11;97832.19;1741363;80;21014;-84
2022/05/23 01:21:57;;;;;;;7.50;4.75;;;;;;;8.08;83.18;97835.42;1743250;81;20898;-85
2022/05/23 01:24:37;;;;;;;9.18;4.65;;;;;;;8.13;82.93;97830.05;1737805;80;21470;-81
2022/05/23 01:27:06;;;;;;;8.38;4.42;;;;;;;8.10;85.62;97822.46;1719821;82;21042;-85
2022/05/23 01:29:32;;;;;;;8.77;4.17;;;;;;;8.10;83.60;97825.16;1728730;82;22188;-85
2022/05/23 01:31:59;;;;;;;7.40;4.70;;;;;;;8.05;82.89;97826.52;1720356;82;21124;-85
2022/05/23 01:34:26;;;;;;;13.48;4.92;;;;;;;7.97;84.27;97820.30;1715619;80;21466;-85
2022/05/23 01:36:53;;;;;;;10.03;5.30;;;;;;;7.95;85.31;97813.83;1724240;80;21069;-82
2022/05/23 01:39:19;;;;;;;6.72;4.33;;;;;;;7.91;84.77;97820.81;1722355;80;21074;-85
2022/05/23 01:41:45;;;;;;;7.25;4.20;;;;;;;7.86;85.01;97816.75;1723559;80;21277;-81
2022/05/23 01:44:11;;;;;;;5.85;3.75;;;;;;;7.77;85.54;97831.30;1733867;80;20929;-85
2022/05/23 01:46:37;;;;;;;9.70;5.12;;;;;;;7.71;84.56;97823.48;1743101;81;21017;-85
2022/05/23 01:49:03;;;;;;;6.35;3.90;;;;;;;7.64;84.82;97823.19;1743168;82;20874;-85
2022/05/23 01:51:29;;;;;;;12.20;4.50;;;;;;;7.62;87.03;97823.99;1742931;81;20976;-81
2022/05/23 01:53:55;;;;;;;6.70;4.25;;;;;;;7.59;86.15;97821.81;1741264;80;21844;-85
2022/05/23 01:56:21;;;;;;;7.87;4.80;;;;;;;7.50;85.50;97815.31;1743176;81;20881;-81
2022/05/23 02:01:31;;;;;;;5.90;4.17;;;;;;;7.39;87.57;97815.01;1702898;82;21077;-81
2022/05/23 02:03:57;;;;;;;6.28;4.25;;;;;;;7.37;85.67;97819.05;1714910;80;20901;-84
2022/05/23 02:06:23;;;;;;;6.53;3.50;;;;;;;7.34;85.10;97812.28;1707716;82;21890;-81
2022/05/23 02:08:49;;;;;;;7.12;4.60;;;;;;;7.30;84.21;97811.20;1713317;80;20937;-81
2022/05/23 02:11:15;;;;;;;8.28;4.50;;;;;;;7.22;85.32;97813.86;1743101;82;20874;-83
2022/05/23 02:13:43;;;;;;;8.55;4.22;;;;;;;7.20;85.74;97813.86;1740209;80;20950;-82
2022/05/23 02:16:09;;;;;;;8.58;4.30;;;;;;;7.19;86.38;97813.05;1735078;82;21024;-82
2022/05/23 02:18:35;;;;;;;5.37;4.40;;;;;;;7.17;87.32;97813.82;1739541;80;21446;-85
2022/05/23 02:21:01;;;;;;;6.87;4.60;;;;;;;7.08;87.27;97813.52;1734222;80;20957;-81
2022/05/23 02:23:27;;;;;;;7.55;4.00;;;;;;;7.02;86.45;97824.02;1741279;80;20980;-81
2022/05/23 02:25:53;;;;;;;6.37;4.10;;;;;;;6.93;85.07;97816.15;1740651;81;20850;-81
2022/05/23 02:28:19;;;;;;;8.93;4.22;;;;;;;6.88;87.00;97814.77;1713037;80;21063;-85
2022/05/23 02:30:47;;;;;;;5.22;3.95;;;;;;;6.86;86.99;97819.61;1717061;82;21146;-81
2022/05/23 02:33:14;;;;;;;6.20;4.78;;;;;;;6.84;88.17;97815.56;1713759;80;21033;-85
2022/05/23 02:35:40;;;;;;;6.45;4.12;;;;;;;6.80;89.24;97815.25;1721071;80;21136;-81
2022/05/23 02:38:06;;;;;;;8.90;5.12;;;;;;;6.83;88.80;97815.25;1742990;81;20882;-81
2022/05/23 02:40:31;;;;;;;8.33;4.22;;;;;;;6.84;87.77;97811.52;1737938;82;21077;-81
2022/05/23 02:42:57;;;;;;;6.00;4.40;;;;;;;6.80;87.69;97815.25;1713602;83;21131;-84
2022/05/23 02:45:23;;;;;;;6.35;4.25;;;;;;;6.75;88.21;97816.55;1740146;80;20851;-81
2022/05/23 02:47:49;;;;;;;7.53;4.47;;;;;;;6.72;88.57;97812.50;1742997;81;20886;-85
2022/05/23 02:50:15;;;;;;;8.23;3.77;;;;;;;6.68;87.96;97811.95;1741328;82;21080;-85
2022/05/23 02:52:42;;;;;;;11.90;4.60;;;;;;;6.63;87.75;97808.68;1713485;82;20979;-81
2022/05/23 02:55:09;;;;;;;9.70;3.80;;;;;;;6.57;86.43;97802.16;1735936;80;21195;-85
2022/05/23 02:57:35;;;;;;;7.58;4.30;;;;;;;6.52;87.23;97799.45;1742962;81;21053;-85
2022/05/23 03:00:01;;;;;;;6.83;4.15;;;;;;;6.49;87.48;97796.22;1714611;82;20966;-84
2022/05/23 03:05:11;;;;;;;6.15;3.77;;;;;;;6.45;88.39;97802.36;1723852;80;21016;-84
2022/05/23 03:07:37;;;;;;;8.03;5.05;;;;;;;6.43;88.19;97803.97;1723532;82;21142;-85
2022/05/23 03:10:05;;;;;;;7.10;3.83;;;;;;;6.40;89.28;97800.43;1719404;80;21707;-81
2022/05/23 03:12:34;;;;;;;6.80;4.53;;;;;;;6.37;88.74;97800.15;1713330;82;21502;-85
2022/05/23 03:14:59;;;;;;;6.05;3.87;;;;;;;6.39;89.86;97802.04;1713845;80;20991;-85
2022/05/23 03:17:25;;;;;;;4.08;3.50;;;;;;;6.42;89.00;97806.92;1703414;82;21584;-81
2022/05/23 03:19:50;;;;;;;6.90;4.12;;;;;;;6.44;88.67;97807.47;1730469;80;21314;-81
2022/05/23 03:27:45;;;;;;;9.18;4.65;;;;;;;6.55;87.96;97817.23;1713309;83;21017;-85
2022/05/23 03:30:12;;;;;;;7.00;4.33;;;;;;;6.63;87.63;97823.48;1705538;82;20997;-81
2022/05/23 03:32:39;;;;;;;11.28;5.97;;;;;;;6.66;89.40;97807.34;1703137;83;21914;-84
2022/05/23 03:35:07;;;;;;;9.83;4.22;;;;;;;6.82;88.63;97821.18;1735325;80;22318;-84
2022/05/23 03:37:33;;;;;;;10.10;6.03;;;;;;;6.87;88.22;97814.48;1743148;81;20950;-85
2022/05/23 03:40:02;;;;;;;6.80;4.00;;;;;;;6.92;88.08;97817.73;1731379;80;21030;-85
2022/05/23 03:42:29;;;;;;;8.28;4.53;;;;;;;6.98;87.29;97813.47;1713543;82;20974;-81
2022/05/23 03:44:55;;;;;;;11.60;5.10;;;;;;;7.03;87.09;97821.59;1734590;80;21358;-81
2022/05/23 03:47:21;;;;;;;10.53;4.42;;;;;;;7.02;86.83;97821.31;1721188;82;21061;-85
2022/05/23 03:49:47;;;;;;;7.03;4.37;;;;;;;7.12;86.46;97827.83;1718183;82;20927;-84
2022/05/23 03:52:14;;;;;;;7.70;4.95;;;;;;;7.16;86.79;97820.29;1725412;80;20997;-85
2022/05/23 03:54:40;;;;;;;9.45;5.78;;;;;;;7.26;86.63;97823.56;1727705;80;21085;-85
2022/05/23 03:57:06;;;;;;;8.93;6.15;;;;;;;7.29;87.06;97822.52;1740697;80;21666;-85
2022/05/23 03:59:32;;;;;;;8.98;4.53;;;;;;;7.31;86.64;97824.95;1743216;82;20878;-81
2022/05/23 04:01:58;;;;;;;8.60;4.75;;;;;;;7.27;86.30;97827.38;1743156;81;21017;-85
2022/05/23 04:04:25;;;;;;;8.18;4.35;;;;;;;7.32;85.39;97836.00;1737105;82;21095;-81
2022/05/23 04:06:52;;;;;;;10.60;5.17;;;;;;;7.23;85.92;97837.03;1706133;82;21026;-85
2022/05/23 04:09:18;;;;;;;5.78;4.15;;;;;;;7.21;85.65;97846.47;1716571;82;21041;-81
2022/05/23 04:11:44;;;;;;;7.85;5.35;;;;;;;7.23;85.31;97851.05;1723691;80;20946;-85
2022/05/23 04:14:10;;;;;;;10.25;5.92;;;;;;;7.20;86.38;97855.09;1733913;80;21009;-85
2022/05/23 04:16:36;;;;;;;8.08;5.55;;;;;;;7.22;85.98;97853.48;1743158;81;21255;-81
2022/05/23 04:19:08;;;;;;;7.72;5.25;;;;;;;7.22;87.65;97852.94;1743353;82;20930;-85
2022/05/23 04:21:34;;;;;;;10.53;5.33;;;;;;;7.32;86.94;97862.41;1743275;81;21223;-85
2022/05/23 04:24:00;;;;;;;9.30;5.15;;;;;;;7.43;87.24;97855.18;1742480;82;20937;-80
2022/05/23 04:26:26;;;;;;;8.03;4.90;;;;;;;7.49;87.23;97860.06;1707514;82;21046;-81
2022/05/23 04:28:52;;;;;;;7.45;4.37;;;;;;;7.54;86.96;97856.86;1708687;80;20895;-85
2022/05/23 04:31:19;;;;;;;8.73;4.90;;;;;;;7.63;85.65;97855.81;1721078;80;20907;-85
2022/05/23 04:36:29;;;;;;;7.80;4.67;;;;;;;7.92;86.70;97856.16;1743211;81;21595;-85
2022/05/23 04:38:55;;;;;;;6.83;4.85;;;;;;;7.99;88.12;97859.42;1743305;82;20901;-80
2022/05/23 04:41:21;;;;;;;7.37;5.45;;;;;;;8.01;88.69;97856.45;1743244;81;21300;-81
2022/05/23 04:43:47;;;;;;;9.08;5.45;;;;;;;8.14;87.88;97852.70;1740019;80;20951;-85
2022/05/23 04:46:13;;;;;;;12.10;6.33;;;;;;;8.22;87.51;97854.07;1729056;82;21145;-86
2022/05/23 04:51:23;;;;;;;6.55;5.17;;;;;;;8.39;86.03;97856.55;1721377;80;21094;-81
2022/05/23 04:53:53;;;;;;;11.97;6.30;;;;;;;8.44;85.46;97855.19;1731867;80;21562;-81
2022/05/23 04:56:17;;;;;;;9.13;5.87;;;;;;;8.45;86.18;97852.20;1743016;82;21084;-84
2022/05/23 04:58:43;;;;;;;8.48;5.53;;;;;;;8.57;85.31;97846.55;1739113;81;21750;-81
2022/05/23 05:01:08;;;;;;;9.95;5.20;;;;;;;8.74;85.39;97845.73;1720097;80;20883;-85
2022/05/23 05:03:34;;;;;;;11.97;6.65;;;;;;;8.93;84.53;97837.86;1724924;80;21000;-85
2022/05/23 05:06:00;;;;;;;11.03;5.97;;;;;;;9.12;83.80;97833.22;1718421;82;21648;-81
2022/05/23 05:08:28;;;;;;;8.10;5.65;;;;;;;9.17;84.00;97835.92;1723276;80;21053;-82
2022/05/23 05:10:54;;;;;;;14.20;6.62;;;;;;;9.36;83.91;97833.42;1743266;82;22112;-81
2022/05/23 05:13:20;;;;;;;11.43;6.60;;;;;;;9.63;83.40;97833.84;1732599;80;21008;-81
2022/05/23 05:15:45;;;;;;;9.03;5.30;;;;;;;9.81;83.09;97836.46;1721520;80;21652;-86
2022/05/23 05:18:11;;;;;;;9.93;5.83;;;;;;;9.97;82.62;97833.94;1702937;82;20938;-86
2022/05/23 05:20:37;;;;;;;9.98;6.03;;;;;;;10.11;82.23;97834.94;1733890;80;21040;-81
2022/05/23 05:23:03;;;;;;;10.75;5.95;;;;;;;10.22;82.07;97835.70;1743225;81;21895;-85
2022/05/23 05:25:29;;;;;;;17.15;7.03;;;;;;;10.47;81.98;97837.97;1720836;80;20945;-86
2022/05/23 05:27:55;;;;;;;13.32;6.78;;;;;;;10.69;81.30;97839.69;1742965;81;20981;-81
2022/05/23 05:30:21;;;;;;;8.55;5.42;;;;;;;10.88;81.42;97832.45;1725963;80;20887;-81
2022/05/23 05:33:07;;;;;;;17.32;6.85;;;;;;;11.13;80.54;97832.74;1713435;83;21014;-81
2022/05/23 05:35:44;;;;;;;7.97;5.35;;;;;;;11.41;80.01;97835.14;1716369;80;21499;-86
2022/05/23 05:38:34;;;;;;;15.53;7.83;;;;;;;11.70;78.71;97827.45;1710349;82;20997;-86
2022/05/23 05:41:04;;;;;;;16.05;7.55;;;;;;;11.98;79.04;97829.29;1716436;82;21014;-86
2022/05/23 05:43:33;;;;;;;11.78;7.35;;;;;;;12.20;78.13;97834.66;1721006;82;21080;-86
2022/05/23 05:46:07;;;;;;;11.38;6.87;;;;;;;12.44;76.88;97842.17;1726964;82;20992;-86
2022/05/23 05:48:36;;;;;;;11.95;7.75;;;;;;;12.65;76.77;97847.56;1726116;80;21077;-86
2022/05/23 05:51:01;;;;;;;14.93;7.00;;;;;;;12.71;75.43;97849.06;1713059;80;21016;-86
2022/05/23 05:53:30;;;;;;;14.50;7.15;;;;;;;12.76;74.62;97850.91;1727319;80;21662;-85
2022/05/23 05:55:57;;;;;;;12.18;7.85;;;;;;;12.70;74.29;97849.37;1718590;82;21021;-86
2022/05/23 05:58:23;;;;;;;10.23;6.67;;;;;;;12.76;74.94;97846.83;1716191;82;21457;-85
2022/05/23 06:00:49;;;;;;;10.85;7.03;;;;;;;12.92;73.45;97843.30;1726777;82;21879;-82
2022/05/23 06:03:15;;;;;;;14.40;8.10;;;;;;;13.21;74.14;97843.87;1728855;81;20881;-85
2022/05/23 06:11:26;;;;;;;7.75;6.30;;;;;;;13.82;71.33;97838.56;1723579;80;21649;-86
2022/05/23 06:13:54;;;;;;;11.35;7.53;;;;;;;13.96;69.48;97839.11;1734590;80;21209;-81
2022/05/23 06:16:20;;;;;;;11.83;7.17;;;;;;;14.17;69.14;97838.09;1715008;82;21067;-82
2022/05/23 06:18:46;;;;;;;8.80;6.78;;;;;;;14.23;67.93;97835.50;1720763;80;20956;-86
2022/05/23 06:21:12;;;;;;;10.00;6.58;;;;;;;14.34;67.55;97843.68;1718190;80;21160;-86
2022/05/23 06:23:40;;;;;;;9.60;6.70;;;;;;;14.41;66.62;97844.06;1723439;80;21001;-86
2022/05/23 06:26:06;;;;;;;8.55;6.62;;;;;;;14.53;66.36;97855.83;1733633;80;21363;-86
2022/05/23 06:28:32;;;;;;;11.93;7.67;;;;;;;14.50;63.58;97855.88;1731432;82;20977;-86
2022/05/23 06:30:59;;;;;;;9.45;6.55;;;;;;;14.34;64.44;97856.75;1721478;80;20920;-86
2022/05/23 06:33:26;;;;;;;10.00;6.50;;;;;;;14.59;64.19;97853.21;1735443;80;21037;-86
2022/05/23 06:35:51;;;;;;;9.98;7.30;;;;;;;14.69;62.70;97854.32;1717238;80;21013;-86
2022/05/23 06:38:17;;;;;;;11.70;7.75;;;;;;;14.62;62.83;97851.25;1733288;80;21074;-81
2022/05/23 06:40:43;;;;;;;11.43;6.87;;;;;;;14.75;63.35;97859.91;1723248;81;20964;-82
2022/05/23 06:43:09;;;;;;;10.25;7.12;;;;;;;15.02;63.14;97860.31;1735755;81;21088;-82
2022/05/23 06:45:35;;;;;;;12.30;7.03;;;;;;;15.31;62.97;97856.31;1695589;82;20933;-81
2022/05/23 06:48:01;;;;;;;10.53;7.30;;;;;;;15.46;59.21;97851.22;1734407;80;20858;-82
2022/05/23 06:50:27;;;;;;;13.03;6.33;;;;;;;15.57;57.02;97850.39;1734720;80;21148;-81
2022/05/23 06:52:53;;;;;;;6.35;5.28;;;;;;;15.70;57.81;97849.48;1734696;80;20880;-82
2022/05/23 06:55:19;;;;;;;8.70;4.87;;;;;;;15.76;57.28;97849.59;1733265;80;20882;-82
2022/05/23 06:57:46;;;;;;;6.60;3.25;;;;;;;15.88;54.10;97855.00;1723366;80;21614;-81
2022/05/23 07:00:13;;;;;;;8.68;4.40;;;;;;;16.11;47.25;97844.76;1730541;80;20958;-81
2022/05/23 07:02:39;;;;;;;7.12;4.00;;;;;;;16.22;50.69;97839.22;1721209;82;21508;-81
2022/05/23 07:13:19;;;;;;;6.58;3.30;;;;;;;16.62;47.52;97826.98;1729355;80;21093;-81
2022/05/23 07:15:48;;;;;;;5.25;3.37;;;;;;;16.61;46.41;97831.42;1720577;81;20897;-81
2022/05/23 07:18:15;;;;;;;3.72;3.00;;;;;;;16.76;46.36;97821.95;1711035;80;21107;-81
2022/05/23 07:20:41;;;;;;;4.17;3.02;;;;;;;16.82;46.00;97821.43;1741544;80;21085;-81
2022/05/23 07:23:08;;;;;;;4.12;2.55;;;;;;;17.03;43.57;97818.82;1728877;80;20976;-81
2022/05/23 07:25:34;;;;;;;2.47;1.98;;;;;;;17.46;43.22;97811.02;1723396;80;21069;-87
2022/05/23 07:28:00;;;;;;;4.90;2.25;;;;;;;17.89;40.33;97811.38;1727136;80;21565;-87
2022/05/23 07:30:25;;;;;;;8.13;2.30;;;;;;;18.53;43.57;97807.71;1716506;80;21680;-87
2022/05/23 07:32:52;;;;;;;3.40;2.00;;;;;;;18.49;39.46;97807.37;1732302;80;20907;-86
2022/05/23 07:35:17;;;;;;;4.28;1.90;;;;;;;18.37;39.59;97804.55;1717008;80;21116;-87
2022/05/23 07:37:43;;;;;;;4.78;1.92;;;;;;;18.81;38.46;97797.00;1718980;82;20877;-87
2022/05/23 07:40:11;;;;;;;5.87;2.37;;;;;;;19.32;40.29;97795.39;1720028;80;21133;-87
2022/05/23 07:42:37;;;;;;;4.50;2.20;;;;;;;19.47;39.11;97789.77;1742822;80;22544;-88
2022/05/23 07:45:04;;;;;;;5.40;2.30;;;;;;;19.53;36.55;97789.20;1726331;80;20885;-87
2022/05/23 07:47:30;;;;;;;4.50;1.72;;;;;;;20.39;38.81;97780.83;1723566;81;21104;-82
2022/05/23 07:49:56;;;;;;;5.62;2.60;;;;;;;21.05;38.78;97787.99;1723177;80;20977;-81
2022/05/23 07:52:22;;;;;;;7.85;2.80;;;;;;;20.55;36.13;97788.59;1726659;80;21902;-82
2022/05/23 08:00:33;;;;;;;4.70;2.30;;;;;;;22.04;36.59;97768.12;1707125;80;38915;-82
2022/05/23 08:03:06;;;;;;;3.37;2.55;;;;;;;23.27;35.35;97772.95;1736048;80;21064;-82
2022/05/23 08:05:32;;;;;;;2.95;2.37;;;;;;;22.91;32.09;97768.17;1669011;82;21046;-82
2022/05/23 08:07:58;;;;;;;5.10;2.25;;;;;;;23.40;34.59;97773.54;1730938;80;21398;-82
2022/05/23 08:10:25;;;;;;;4.33;2.15;;;;;;;23.15;33.88;97768.38;1653218;83;20985;-82
2022/05/23 08:12:53;;;;;;;3.02;1.92;;;;;;;24.00;33.51;97766.19;1678038;83;21056;-82
2022/05/23 08:15:21;;;;;;;;;;;;;;;23.88;30.33;97767.22;1676952;83;21090;-82
2022/05/23 08:17:48;;;;;;;5.42;2.02;;;;;;;24.06;30.95;97759.17;1647559;84;21054;-82
2022/05/23 08:20:13;;;;;;;5.08;1.92;;;;;;;24.18;32.63;97751.20;1674425;83;20990;-82
2022/05/23 08:22:39;;;;;;;4.78;2.25;;;;;;;23.92;33.13;97749.28;1682797;83;20928;-82
2022/05/23 08:25:06;;;;;;;5.42;2.80;;;;;;;23.45;33.02;97743.63;1677314;83;21388;-88
2022/05/23 08:27:34;;;;;;;8.45;2.40;;;;;;;22.97;33.51;97747.94;1674895;83;21061;-86
2022/05/23 08:30:01;;;;;;;3.03;1.77;;;;;;;22.85;32.67;97747.53;1730052;80;21096;-86
2022/05/23 08:32:26;;;;;;;3.10;2.22;;;;;;;23.36;32.21;97737.55;1733053;80;21471;-87
2022/05/23 08:34:52;;;;;;;3.67;1.62;;;;;;;23.80;30.66;97734.30;1730030;80;20958;-87
2022/05/23 08:37:18;;;;;;;4.75;1.72;;;;;;;24.21;28.80;97733.87;1732403;80;21513;-87
2022/05/23 08:39:46;;;;;;;2.87;1.80;;;;;;;25.46;29.03;97733.20;1717100;80;20910;-87
2022/05/23 08:42:29;;;;;;;3.27;1.90;;;;;;;24.93;27.96;97732.12;1711344;82;21942;-87
2022/05/23 08:45:07;;;;;;;4.40;1.70;;;;;;;25.58;29.89;97732.91;1737445;80;21006;-87
2022/05/23 08:47:37;;;;;;;;;;;;;;;23.98;30.50;97735.92;1740881;80;22212;-87
2022/05/23 08:50:23;;;;;;;2.75;1.80;;;;;;;22.83;31.53;97739.38;1731473;80;20218;-87
2022/05/23 08:53:05;;;;;;;3.02;1.70;;;;;;;23.27;30.67;97745.30;1714801;80;21108;-86
2022/05/23 08:55:35;;;;;;;6.97;2.22;;;;;;;24.14;30.48;97740.10;1733047;80;21210;-86
2022/05/23 08:58:20;;;;;;;5.45;1.72;;;;;;;25.26;29.69;97731.86;1733724;80;20986;-87
2022/05/23 09:01:00;;;;;;;4.78;2.45;;;;;;;25.87;28.47;97730.34;1725242;80;21104;-87
2022/05/23 09:03:33;;;;;;;6.45;1.87;;;;;;;27.05;27.91;97724.66;1727856;80;21387;-86
2022/05/23 09:06:31;;;;;;;2.00;1.30;;;;;;;27.53;26.37;97721.50;1731675;80;21001;-88
2022/05/23 09:08:59;;;;;;;;;;;;;;;28.28;25.49;97722.11;1735521;80;21084;-87
2022/05/23 09:11:50;;;;;;;4.62;1.87;;;;;;;28.28;23.62;97719.92;1732875;80;20220;-87
2022/05/23 09:14:17;;;;;;;3.60;2.17;;;;;;;27.60;25.10;97720.67;1731299;80;21631;-88
2022/05/23 09:16:53;;;;;;;2.92;2.20;;;;;;;24.35;27.89;97718.83;1736446;80;21135;-86
2022/05/23 09:19:42;;;;;;;5.95;1.85;;;;;;;25.42;28.24;97721.89;1731055;80;21482;-87
2022/05/23 09:22:14;;;;;;;6.25;1.60;;;;;;;25.83;27.02;97729.53;1732788;80;21952;-87
2022/05/23 09:24:48;;;;;;;2.70;2.10;;;;;;;26.86;26.42;97717.46;1726582;80;21090;-88
2022/05/23 09:27:36;;;;;;;4.10;1.60;;;;;;;27.14;24.88;97720.89;1735735;80;20999;-89
2022/05/23 09:30:13;;;;;;;3.10;1.40;;;;;;;26.49;24.78;97715.56;1722825;80;21485;-85
2022/05/23 09:32:56;;;;;;;3.67;1.45;;;;;;;27.83;24.57;97714.90;1737651;80;21009;-85
2022/05/23 09:35:25;;;;;;;2.35;1.67;;;;;;;28.15;24.04;97720.19;1730115;80;21308;-86
2022/05/23 09:38:14;;;;;;;2.95;1.75;;;;;;;28.26;23.83;97711.19;1732905;80;21041;-86
2022/05/23 09:40:40;;;;;;;3.52;1.82;;;;;;;29.20;23.42;97711.68;1730067;80;21123;-87
2022/05/23 09:49:14;;;;;;;1.45;1.20;;;;;;;31.12;20.77;97695.53;1712062;82;21151;-86
2022/05/23 09:52:00;;;;;;;1.95;1.30;;;;;;;27.88;23.17;97699.00;1711937;80;21615;-83
2022/05/23 09:54:32;;;;;;;2.50;1.30;;;;;;;27.90;22.82;97704.35;1703906;81;21555;-83
2022/05/23 09:57:02;;;;;;;1.65;1.27;;;;;;;28.27;22.79;97703.02;1724516;80;20989;-83
2022/05/23 09:59:36;;;;;;;3.27;1.10;;;;;;;29.41;21.97;97699.56;1725956;80;20989;-83
2022/05/23 10:02:24;;;;;;;4.05;1.32;;;;;;;29.16;20.36;97699.78;1736555;80;21854;-84
2022/05/23 10:04:49;;;;;;;2.08;1.22;;;;;;;30.44;20.51;97697.70;1728436;80;21048;-83
2022/05/23 10:07:34;;;;;;;1.82;1.25;;;;;;;30.98;20.19;97697.14;1726822;80;20942;-88
2022/05/23 10:10:25;;;;;;;3.67;1.62;;;;;;;31.51;19.45;97698.30;1730193;80;21626;-87
2022/05/23 10:12:52;;;;;;;2.98;1.17;;;;;;;32.04;18.10;97702.75;1649681;85;21079;-89
2022/05/23 10:15:25;;;;;;;4.42;1.57;;;;;;;32.51;18.52;97700.00;1701683;82;21188;-88
2022/05/23 10:18:06;;;;;;;2.62;1.40;;;;;;;32.87;17.12;97702.65;1732979;80;21050;-87
2022/05/23 10:20:40;;;;;;;3.05;0.93;;;;;;;32.96;17.06;97700.03;1734313;80;21041;-88
2022/05/23 10:23:21;;;;;;;5.45;1.22;;;;;;;33.25;16.61;97700.16;1735236;80;21033;-88
2022/05/23 10:26:10;;;;;;;2.10;1.62;;;;;;;33.94;16.63;97686.77;1716294;80;21111;-88
2022/05/23 10:28:57;;;;;;;3.77;1.20;;;;;;;34.10;15.53;97683.91;1712258;80;21112;-84
2022/05/23 10:31:49;;;;;;;2.70;1.20;;;;;;;33.60;15.14;97695.06;1729684;80;21049;-83
2022/05/23 10:34:39;;;;;;;1.80;1.10;;;;;;;33.31;14.18;97694.17;1732798;80;21115;-84
2022/05/23 10:37:09;;;;;;;1.92;0.95;;;;;;;33.79;15.25;97684.92;1733286;80;21109;-83
2022/05/23 10:42:45;;;;;;;1.85;0.90;;;;;;;34.36;14.46;97693.81;1729894;80;21522;-84
2022/05/23 10:45:23;;;;;;;1.50;0.98;;;;;;;34.74;14.72;97689.67;1732009;80;20986;-84
2022/05/23 10:48:04;;;;;;;;;;;;;;;35.28;14.34;97681.72;1730621;80;21120;-84
2022/05/23 10:50:45;;;;;;;1.52;1.10;;;;;;;35.62;13.28;97676.77;1724829;80;20262;-84
2022/05/23 10:53:41;;;;;;;3.12;1.42;;;;;;;34.67;14.27;97677.22;1732723;80;20993;-84
2022/05/23 10:56:42;;;;;;;4.42;1.35;;;;;;;34.53;13.63;97672.84;1719111;80;21049;-85
2022/05/23 10:59:22;;;;;;;3.50;1.40;;;;;;;34.21;14.29;97669.53;1731801;80;21040;-84
2022/05/23 11:02:16;;;;;;;3.87;1.10;;;;;;;34.48;13.97;97667.14;1732388;80;21067;-83
2022/05/23 11:05:07;;;;;;;1.87;1.12;;;;;;;34.80;13.44;97667.40;1732829;80;21027;-84
2022/05/23 11:08:00;;;;;;;1.92;0.93;;;;;;;34.93;13.52;97657.73;1733411;80;21036;-83
2022/05/23 11:10:38;;;;;;;2.25;1.27;;;;;;;35.32;13.52;97661.29;1728690;80;21792;-84
2022/05/23 11:13:41;;;;;;;1.92;1.00;;;;;;;35.99;13.29;97661.00;1721098;80;21533;-84
2022/05/23 11:16:31;;;;;;;2.70;1.37;;;;;;;36.38;12.95;97660.17;1734527;80;20989;-84
2022/05/23 11:19:17;;;;;;;2.75;1.42;;;;;;;35.42;12.22;97639.66;1728100;80;21654;-84
2022/05/23 11:21:58;;;;;;;2.00;1.07;;;;;;;35.95;12.60;97645.45;1714450;80;21072;-84
2022/05/23 11:24:41;;;;;;;1.20;0.85;;;;;;;35.75;13.31;97637.30;1729465;80;21108;-83
2022/05/23 11:35:55;;;;;;;1.87;0.93;;;;;;;34.16;12.90;97627.29;1716980;80;21907;-84
2022/05/23 11:38:20;;;;;;;2.35;1.30;;;;;;;34.63;14.04;97624.52;1736364;80;21048;-84
2022/05/23 11:41:09;;;;;;;1.22;1.00;;;;;;;35.46;13.40;97610.73;1716549;80;21033;-84
2022/05/23 11:43:35;;;;;;;4.10;1.12;;;;;;;35.64;13.41;97615.73;1715524;80;21023;-83
2022/05/23 11:46:04;;;;;;;2.05;1.10;;;;;;;35.53;13.90;97616.91;1721796;80;20909;-84
2022/05/23 11:48:43;;;;;;;1.60;1.10;;;;;;;35.09;13.81;97606.14;1734001;80;21017;-84
2022/05/23 11:51:37;;;;;;;1.75;0.75;;;;;;;32.09;15.35;97613.38;1723848;80;21080;-84
2022/05/23 11:54:14;;;;;;;1.15;0.90;;;;;;;34.18;14.43;97602.95;1733941;80;21008;-84
2022/05/23 11:56:51;;;;;;;2.53;0.80;;;;;;;33.81;14.20;97603.00;1710212;80;21152;-84
2022/05/23 11:59:29;;;;;;;3.10;0.80;;;;;;;33.87;14.19;97603.42;1702120;80;20993;-84
2022/05/23 12:02:12;;;;;;;3.80;1.20;;;;;;;32.35;15.09;97606.66;1723531;80;20991;-83
2022/05/23 12:04:51;;;;;;;1.87;1.10;;;;;;;30.96;16.11;97603.69;1729749;80;21312;-83
2022/05/23 12:07:44;;;;;;;3.80;3.20;;;;;;;32.34;15.58;97604.47;1737556;80;21408;-84
2022/05/23 12:10:31;;;;;;;2.25;1.45;;;;;;;32.39;15.47;97601.16;1722201;80;21010;-83
2022/05/23 12:13:31;;;;;;;2.45;1.98;;;;;;;32.49;14.96;97589.52;1728474;81;21063;-83
2022/05/23 12:15:58;;;;;;;2.30;1.57;;;;;;;32.87;15.26;97586.23;1725915;80;21061;-83
2022/05/23 12:18:29;;;;;;;1.87;1.15;;;;;;;31.85;16.53;97584.66;1726611;80;21096;-83
2022/05/23 12:21:02;;;;;;;1.57;0.90;;;;;;;32.23;16.29;97582.26;1721452;81;20986;-84
2022/05/23 12:23:38;;;;;;;1.85;0.80;;;;;;;33.41;16.26;97573.81;1736693;82;21044;-84
2022/05/23 12:26:15;;;;;;;2.12;0.82;;;;;;;34.32;15.46;97573.00;1727062;80;21395;-83
2022/05/23 12:28:46;;;;;;;;;;;;;;;34.25;15.35;97576.64;1740898;80;21550;-84
2022/05/23 12:31:17;;;;;;;2.40;1.02;;;;;;;34.06;15.51;97565.16;1682827;82;21845;-84
2022/05/23 12:33:53;;;;;;;3.10;0.72;;;;;;;34.27;15.38;97562.33;1730207;80;21580;-84
2022/05/23 12:36:22;;;;;;;1.60;0.90;;;;;;;32.90;15.99;97555.30;1733150;80;21072;-89
2022/05/23 12:39:27;;;;;;;2.02;1.12;;;;;;;30.67;17.85;97564.20;1728455;80;20997;-88
2022/05/23 12:42:21;;;;;;;1.55;1.10;;;;;;;29.45;19.03;97557.39;1732194;80;21163;-88
2022/05/23 12:45:28;;;;;;;1.30;0.90;;;;;;;28.68;19.63;97556.13;1730940;80;21065;-90
2022/05/23 12:48:28;;;;;;;2.87;1.22;;;;;;;29.38;18.91;97546.91;1720370;80;21383;-89
2022/05/23 12:51:12;;;;;;;3.22;1.10;;;;;;;27.61;21.96;97535.86;1726003;80;21033;-87
2022/05/23 12:54:09;;;;;;;3.62;1.32;;;;;;;27.09;23.08;97541.97;1726181;80;21603;-89
2022/05/23 12:57:09;;;;;;;2.67;1.07;;;;;;;25.62;24.40;97541.52;1711491;80;21028;-89